Time;durP1;ratioP1;P1;durP2;ratioP2;P2;SDS_P1;SDS_P2;PMS_P1;PMS_P2;Temp;Humidity;BMP_temperature;BMP_pressure;BME280_temperature;BME280_humidity;BME280_pressure;Samples;Min_cycle;Max_cycle;Signal;HPM_P1;HPM_P2
2022/12/22 03:26:52;;;;;;;5.85;5.32;;;2.70;99.90;;;;;;4916352;29;20052;-94
2022/12/22 03:29:19;;;;;;;7.47;6.75;;;2.70;99.90;;;;;;4914777;29;20055;-93
2022/12/22 03:31:47;;;;;;;6.03;5.28;;;2.80;99.90;;;;;;4930773;29;20060;-93
2022/12/22 03:34:15;;;;;;;6.82;4.47;;;2.80;99.90;;;;;;4899727;29;20063;-94
2022/12/22 03:36:43;;;;;;;4.93;4.43;;;2.70;99.90;;;;;;4914705;29;20049;-93
2022/12/22 03:39:11;;;;;;;7.90;6.25;;;2.70;99.90;;;;;;4899053;29;20059;-94
2022/12/22 03:47:12;;;;;;;6.30;4.55;;;3.00;99.90;;;;;;4916322;29;20519;-93
2022/12/22 04:02:18;;;;;;;7.75;7.05;;;3.20;99.90;;;;;;4894662;29;20064;-93
2022/12/22 04:04:48;;;;;;;6.43;5.50;;;3.50;99.90;;;;;;4895923;29;20048;-92
2022/12/22 04:07:16;;;;;;;10.88;6.97;;;3.60;99.90;;;;;;4926748;29;20056;-91
2022/12/22 04:12:52;;;;;;;5.70;5.20;;;3.50;99.90;;;;;;4926042;28;20055;-91
2022/12/22 04:15:18;;;;;;;5.40;4.90;;;3.50;99.90;;;;;;4950912;29;20051;-91
2022/12/22 04:17:46;;;;;;;5.78;4.75;;;3.40;99.90;;;;;;4934489;29;20054;-93
2022/12/22 04:20:15;;;;;;;6.07;5.13;;;3.30;99.90;;;;;;4926348;28;20043;-94
2022/12/22 04:22:43;;;;;;;4.07;3.70;;;3.30;99.90;;;;;;4938462;28;20054;-95
2022/12/22 04:25:11;;;;;;;6.15;5.55;;;3.30;99.90;;;;;;4939597;28;20046;-93
2022/12/22 04:27:40;;;;;;;6.18;3.67;;;3.30;99.90;;;;;;4956164;28;20236;-94
2022/12/22 04:30:11;;;;;;;4.50;4.10;;;3.30;99.90;;;;;;4957419;28;20398;-93
2022/12/22 04:32:41;;;;;;;3.78;3.03;;;3.30;99.90;;;;;;4956902;28;20039;-94
2022/12/22 04:35:10;;;;;;;3.85;3.42;;;3.40;99.90;;;;;;4932484;29;20047;-93
2022/12/22 04:37:38;;;;;;;4.68;4.28;;;3.30;99.90;;;;;;4934749;28;20046;-94
2022/12/22 04:40:06;;;;;;;6.82;4.38;;;3.40;99.90;;;;;;4919558;28;20054;-94
2022/12/22 04:42:34;;;;;;;6.63;4.50;;;3.60;99.90;;;;;;4934732;29;20713;-92
2022/12/22 04:45:02;;;;;;;4.40;3.35;;;3.70;99.90;;;;;;4934491;29;20635;-92
2022/12/22 04:47:30;;;;;;;4.85;4.18;;;3.80;99.90;;;;;;4903222;29;20047;-92
2022/12/22 04:49:58;;;;;;;4.07;3.78;;;3.90;99.90;;;;;;4918366;29;20054;-93
2022/12/22 04:52:26;;;;;;;5.30;3.88;;;4.00;99.90;;;;;;4921291;29;20044;-92
2022/12/22 04:54:53;;;;;;;4.10;3.70;;;4.00;99.90;;;;;;4915426;29;20059;-92
2022/12/22 04:57:21;;;;;;;4.30;3.90;;;4.00;99.90;;;;;;4934975;28;20047;-92
2022/12/22 04:59:49;;;;;;;4.90;3.63;;;3.90;99.90;;;;;;4933027;28;20065;-92
2022/12/22 05:02:16;;;;;;;3.22;2.97;;;3.90;99.90;;;;;;4924815;28;20047;-92
2022/12/22 05:04:46;;;;;;;8.75;4.25;;;3.80;99.90;;;;;;4898075;29;20041;-93
2022/12/22 05:07:13;;;;;;;4.40;3.95;;;3.80;99.90;;;;;;4893135;29;20101;-91
2022/12/22 05:09:41;;;;;;;4.70;4.30;;;3.90;99.90;;;;;;4893728;29;20424;-92
2022/12/22 05:14:57;;;;;;;7.20;4.20;;;3.80;99.90;;;;;;4910278;29;20420;-94
2022/12/22 05:17:25;;;;;;;4.50;3.22;;;3.60;99.90;;;;;;4896873;29;20070;-94
2022/12/22 05:19:53;;;;;;;3.83;3.53;;;3.30;99.90;;;;;;4898519;28;20424;-93
2022/12/22 05:22:21;;;;;;;12.80;4.43;;;3.50;99.90;;;;;;4911781;29;20083;-92
2022/12/22 05:24:48;;;;;;;42.55;7.15;;;3.20;99.90;;;;;;4926588;28;20063;-92
2022/12/22 05:27:16;;;;;;;62.63;9.50;;;2.70;99.90;;;;;;4892344;29;20057;-93
2022/12/22 05:29:44;;;;;;;25.52;5.45;;;2.40;99.90;;;;;;4898098;29;20068;-92
2022/12/22 05:32:11;;;;;;;35.10;5.90;;;2.20;99.90;;;;;;4878047;29;20048;-92
2022/12/22 05:34:42;;;;;;;62.58;6.63;;;2.10;99.90;;;;;;4907955;29;20060;-92
2022/12/22 05:37:12;;;;;;;33.30;5.55;;;2.00;99.90;;;;;;4922013;28;20051;-92
2022/12/22 05:39:40;;;;;;;13.80;4.22;;;2.00;99.90;;;;;;4913608;29;20060;-93
2022/12/22 05:42:08;;;;;;;32.08;5.85;;;2.10;99.90;;;;;;4878011;29;20048;-92
2022/12/22 05:44:35;;;;;;;28.45;6.82;;;1.90;99.90;;;;;;4878111;29;20053;-94
2022/12/22 05:47:06;;;;;;;14.43;5.75;;;1.80;99.90;;;;;;4890400;29;20060;-93
2022/12/22 05:49:37;;;;;;;48.42;9.20;;;1.80;99.90;;;;;;4900989;29;20052;-92
2022/12/22 05:52:06;;;;;;;6.88;6.25;;;1.80;99.90;;;;;;4925420;29;20047;-93
2022/12/22 05:54:33;;;;;;;6.88;5.57;;;1.80;99.90;;;;;;4912194;29;20196;-93
2022/12/22 05:57:01;;;;;;;7.55;5.80;;;1.80;99.90;;;;;;4926856;29;20055;-92
2022/12/22 05:59:29;;;;;;;19.40;5.28;;;1.80;99.90;;;;;;4896173;29;20063;-92
2022/12/22 06:01:58;;;;;;;6.50;5.90;;;1.80;99.90;;;;;;4876207;29;20416;-93
2022/12/22 06:04:26;;;;;;;7.38;5.60;;;1.70;99.90;;;;;;4892080;29;20049;-93
2022/12/22 06:06:54;;;;;;;5.75;5.35;;;1.80;99.90;;;;;;4879374;29;20060;-91
2022/12/22 06:09:22;;;;;;;6.43;4.97;;;1.80;99.90;;;;;;4857902;29;20061;-91
2022/12/22 06:11:49;;;;;;;5.13;4.63;;;1.80;99.90;;;;;;4857353;29;20063;-90
2022/12/22 06:14:17;;;;;;;6.15;4.30;;;2.00;99.90;;;;;;4839850;29;20425;-88
2022/12/22 06:16:47;;;;;;;5.13;4.72;;;2.40;99.90;;;;;;4856868;29;20048;-90
2022/12/22 06:19:15;;;;;;;4.82;4.38;;;2.30;99.90;;;;;;4886578;29;20050;-92
2022/12/22 06:21:45;;;;;;;2.88;2.53;;;2.40;99.90;;;;;;4893401;29;20797;-91
2022/12/22 06:24:13;;;;;;;2.28;2.05;;;2.50;99.90;;;;;;4923754;29;20041;-93
2022/12/22 06:26:41;;;;;;;3.45;3.15;;;2.90;99.90;;;;;;4906855;29;20061;-90
2022/12/22 06:29:09;;;;;;;4.03;3.28;;;3.20;99.90;;;;;;4875583;29;20049;-91
2022/12/22 06:31:39;;;;;;;6.00;3.60;;;3.50;99.90;;;;;;4889067;29;20417;-90
2022/12/22 06:34:09;;;;;;;5.90;2.58;;;3.60;99.90;;;;;;4873937;29;20055;-91
2022/12/22 06:36:37;;;;;;;3.13;2.85;;;3.70;99.90;;;;;;4890090;29;20540;-91
2022/12/22 06:39:05;;;;;;;3.28;3.08;;;4.00;99.90;;;;;;4873763;29;20057;-91
2022/12/22 06:44:19;;;;;;;3.28;2.97;;;3.90;99.90;;;;;;4871095;29;20049;-92
2022/12/22 06:46:47;;;;;;;2.67;2.47;;;4.10;99.90;;;;;;4908611;29;20445;-92
2022/12/22 06:49:15;;;;;;;3.63;3.42;;;4.20;99.90;;;;;;4885012;29;20055;-92
2022/12/22 06:51:45;;;;;;;3.78;2.92;;;4.30;99.90;;;;;;4886052;29;20064;-92
2022/12/22 06:54:13;;;;;;;3.15;2.22;;;4.20;99.90;;;;;;4870221;29;20236;-92
2022/12/22 06:56:52;;;;;;;2.10;2.00;;;4.20;99.90;;;;;;4902321;29;20044;-91
2022/12/22 06:59:20;;;;;;;2.53;2.22;;;4.00;99.90;;;;;;4886904;29;20057;-91
2022/12/22 07:01:47;;;;;;;3.03;2.72;;;4.00;99.90;;;;;;4919461;29;20633;-91
2022/12/22 07:04:19;;;;;;;3.15;2.90;;;3.90;99.90;;;;;;4923029;28;20045;-90
2022/12/22 07:06:54;;;;;;;3.92;2.88;;;3.90;99.90;;;;;;4892338;29;20497;-90
2022/12/22 07:09:26;;;;;;;3.75;3.45;;;3.80;99.90;;;;;;4891943;29;20055;-91
2022/12/22 07:11:56;;;;;;;2.80;2.40;;;3.80;99.90;;;;;;4894311;29;20056;-91
2022/12/22 07:14:23;;;;;;;5.63;3.00;;;3.90;99.90;;;;;;4908699;29;20057;-91
2022/12/22 07:16:51;;;;;;;4.38;3.92;;;4.00;99.90;;;;;;4897273;29;20056;-91
2022/12/22 07:19:19;;;;;;;3.95;3.65;;;3.90;99.90;;;;;;4899148;29;20385;-90
2022/12/22 07:21:47;;;;;;;3.90;3.60;;;3.80;99.90;;;;;;4930199;28;20560;-91
2022/12/22 07:24:21;;;;;;;4.07;3.78;;;3.80;99.90;;;;;;4897722;29;20044;-91
2022/12/22 07:26:49;;;;;;;3.28;3.08;;;3.90;99.90;;;;;;4912367;29;20063;-91
2022/12/22 07:29:35;;;;;;;4.88;4.03;;;3.80;99.90;;;;;;4898226;29;20041;-90
2022/12/22 07:32:03;;;;;;;9.70;3.33;;;3.80;99.90;;;;;;4878665;29;20048;-90
2022/12/22 07:34:49;;;;;;;2.90;2.70;;;3.90;99.90;;;;;;4897555;29;20045;-90
2022/12/22 07:37:18;;;;;;;3.15;2.85;;;4.00;99.90;;;;;;4924910;29;20440;-91
2022/12/22 07:39:46;;;;;;;3.40;3.10;;;4.10;99.90;;;;;;4894568;29;20421;-90
2022/12/22 07:42:44;;;;;;;4.05;2.40;;;4.10;99.90;;;;;;4899788;29;20285;-90
2022/12/22 07:45:32;;;;;;;1.95;1.63;;;4.10;99.90;;;;;;4909308;29;20049;-89
2022/12/22 07:50:23;;;;;;;6.18;2.28;;;4.50;99.90;;;;;;4878736;29;20522;-90
2022/12/22 07:51:08;;;;;;;3.03;2.83;;;4.70;99.90;;;;;;4895718;29;20057;-90
2022/12/22 07:53:54;;;;;;;1.60;1.25;;;5.20;99.90;;;;;;4909491;29;20488;-89
2022/12/22 07:56:42;;;;;;;1.92;1.73;;;5.30;99.90;;;;;;4890914;29;20044;-91
2022/12/22 07:59:10;;;;;;;1.67;1.25;;;5.30;99.90;;;;;;4892258;29;20064;-89
2022/12/22 08:01:39;;;;;;;2.95;2.75;;;5.40;99.90;;;;;;4881868;29;20566;-89
2022/12/22 08:04:08;;;;;;;1.20;1.10;;;5.30;99.90;;;;;;4873274;29;20048;-90
2022/12/22 08:06:43;;;;;;;1.95;1.75;;;5.30;99.90;;;;;;4873449;29;20057;-89
2022/12/22 08:09:29;;;;;;;3.30;2.15;;;5.30;99.90;;;;;;4885975;29;20055;-89
2022/12/22 08:12:15;;;;;;;3.15;2.65;;;5.00;99.90;;;;;;4891975;29;20037;-89
2022/12/22 08:14:44;;;;;;;8.10;4.55;;;4.50;99.90;;;;;;4890545;29;20060;-88
2022/12/22 08:17:12;;;;;;;2.42;2.17;;;4.20;99.90;;;;;;4872394;29;20438;-89
2022/12/22 08:19:59;;;;;;;8.38;6.00;;;4.20;99.90;;;;;;4859212;29;20053;-89
2022/12/22 08:22:28;;;;;;;1.98;1.88;;;4.50;99.90;;;;;;4870521;29;20516;-89
2022/12/22 08:24:56;;;;;;;5.55;1.73;;;4.50;99.90;;;;;;4880471;29;20053;-89
2022/12/22 08:27:30;;;;;;;3.10;2.47;;;5.00;99.90;;;;;;4871504;29;20331;-90
2022/12/22 08:30:16;;;;;;;0.93;0.93;;;5.30;99.90;;;;;;4898049;29;20049;-89
2022/12/22 08:33:03;;;;;;;1.63;1.52;;;5.80;99.90;;;;;;4901143;29;20057;-90
2022/12/22 08:35:55;;;;;;;1.10;1.10;;;5.80;99.90;;;;;;4873375;29;20057;-89
2022/12/22 08:38:47;;;;;;;1.33;1.17;;;6.10;99.90;;;;;;4872058;29;20049;-89
2022/12/22 08:41:48;;;;;;;1.38;1.23;;;6.50;99.90;;;;;;4872257;29;20057;-89
2022/12/22 08:44:03;;;;;;;1.70;1.30;;;6.50;99.90;;;;;;4872496;29;20056;-89
2022/12/22 08:46:51;;;;;;;3.15;2.95;;;6.60;99.90;;;;;;4878875;29;20057;-88
2022/12/22 08:49:20;;;;;;;1.75;1.35;;;6.50;99.90;;;;;;4855806;29;20079;-88
2022/12/22 08:51:48;;;;;;;3.20;1.58;;;6.60;99.90;;;;;;4890341;29;20417;-89
2022/12/22 08:54:16;;;;;;;1.00;1.00;;;6.60;99.90;;;;;;4912847;29;20061;-90
2022/12/22 08:56:44;;;;;;;2.67;1.90;;;6.80;99.90;;;;;;4890979;29;20056;-88
2022/12/22 08:59:16;;;;;;;0.82;0.82;;;6.90;99.90;;;;;;4906313;29;20065;-88
2022/12/22 09:01:46;;;;;;;2.25;1.63;;;6.90;99.90;;;;;;4854975;29;20053;-87
2022/12/22 09:04:17;;;;;;;1.60;0.82;;;7.10;99.90;;;;;;4872051;29;20517;-86
2022/12/22 09:06:46;;;;;;;4.50;1.67;;;7.30;99.90;;;;;;4902021;29;20684;-85
2022/12/22 09:09:15;;;;;;;1.33;0.93;;;7.70;99.90;;;;;;4851079;29;20052;-88
2022/12/22 09:11:45;;;;;;;1.15;0.80;;;8.20;99.90;;;;;;4837125;29;20053;-89
2022/12/22 09:14:13;;;;;;;3.10;0.93;;;8.20;99.90;;;;;;4881654;29;20049;-89
2022/12/22 09:16:41;;;;;;;1.20;0.85;;;8.00;99.90;;;;;;4870616;29;20056;-89
2022/12/22 09:19:09;;;;;;;3.15;1.20;;;8.20;99.90;;;;;;4885700;29;20060;-89
2022/12/22 09:21:37;;;;;;;1.30;1.25;;;8.50;99.90;;;;;;4885529;29;20072;-88
2022/12/22 09:24:06;;;;;;;4.13;1.40;;;8.80;99.90;;;;;;4870134;29;20421;-87
2022/12/22 09:26:34;;;;;;;0.73;0.73;;;8.90;99.90;;;;;;4871998;29;20071;-88
2022/12/22 09:29:03;;;;;;;3.90;0.90;;;8.80;99.90;;;;;;4870747;29;20056;-88
2022/12/22 09:31:34;;;;;;;1.50;1.38;;;8.70;99.90;;;;;;4886331;29;20053;-88
2022/12/22 09:34:01;;;;;;;7.20;1.40;;;8.50;99.90;;;;;;4854713;29;20556;-88
2022/12/22 09:36:30;;;;;;;2.47;2.15;;;8.50;99.90;;;;;;4869917;29;20053;-89
2022/12/22 09:39:05;;;;;;;7.32;2.60;;;8.50;99.90;;;;;;4868166;29;20068;-89
2022/12/22 09:41:44;;;;;;;2.00;1.60;;;8.40;99.90;;;;;;4871878;29;20063;-88
2022/12/22 09:44:19;;;;;;;1.98;1.42;;;8.20;99.90;;;;;;4905471;29;20401;-89
2022/12/22 09:46:47;;;;;;;1.85;1.35;;;8.00;99.90;;;;;;4855754;29;20433;-89
2022/12/22 09:49:18;;;;;;;3.33;1.02;;;7.90;99.90;;;;;;4869342;29;20053;-89
2022/12/22 09:52:14;;;;;;;0.90;0.90;;;8.00;99.90;;;;;;4870818;29;20496;-89
2022/12/22 09:54:41;;;;;;;3.03;2.90;;;8.10;99.90;;;;;;4870058;29;20059;-88
2022/12/22 09:57:11;;;;;;;1.90;1.45;;;8.20;99.90;;;;;;4871342;29;20053;-88
2022/12/22 09:59:41;;;;;;;0.95;0.95;;;8.10;99.90;;;;;;4870361;29;20061;-88
2022/12/22 10:02:30;;;;;;;1.38;0.75;;;8.10;99.90;;;;;;4862942;29;20088;-88
2022/12/22 10:05:15;;;;;;;1.02;0.98;;;8.00;99.90;;;;;;4860641;29;20056;-87
2022/12/22 10:07:43;;;;;;;0.73;0.73;;;8.10;99.90;;;;;;4896815;29;20889;-86
2022/12/22 10:10:26;;;;;;;4.28;2.53;;;8.50;99.90;;;;;;4869736;29;20049;-84
2022/12/22 10:12:55;;;;;;;0.93;0.90;;;8.80;99.90;;;;;;4854747;29;20061;-83
2022/12/22 10:15:24;;;;;;;0.98;0.95;;;9.10;99.90;;;;;;4856734;29;20057;-88
2022/12/22 10:18:09;;;;;;;1.85;1.38;;;9.30;99.90;;;;;;4855840;29;20419;-85
2022/12/22 10:20:38;;;;;;;1.05;0.70;;;9.00;99.90;;;;;;4874359;29;20052;-87
2022/12/22 10:23:28;;;;;;;1.90;0.77;;;9.10;99.90;;;;;;4937931;29;20037;-88
2022/12/22 10:25:55;;;;;;;0.70;0.70;;;9.00;99.90;;;;;;4876238;29;20057;-88
2022/12/22 10:28:59;;;;;;;2.78;1.02;;;9.00;99.90;;;;;;4851589;29;20045;-87
2022/12/22 10:31:30;;;;;;;2.42;1.95;;;8.90;99.90;;;;;;4855436;29;20056;-88
2022/12/22 10:34:16;;;;;;;0.82;0.80;;;8.90;99.90;;;;;;4869889;29;20434;-89
2022/12/22 10:36:51;;;;;;;0.93;0.90;;;8.90;99.90;;;;;;4855640;29;20424;-88
2022/12/22 10:39:24;;;;;;;2.33;1.38;;;8.80;99.90;;;;;;4851276;29;20374;-89
2022/12/22 10:41:55;;;;;;;0.70;0.70;;;8.90;99.90;;;;;;4872825;29;20421;-88
2022/12/22 10:44:27;;;;;;;0.60;0.60;;;8.90;99.90;;;;;;4873453;29;20724;-88
2022/12/22 10:46:56;;;;;;;;;;;9.00;99.90;;;;;;4889762;29;20065;-89
2022/12/22 10:49:37;;;;;;;3.20;1.30;;;8.90;99.90;;;;;;4873960;29;19957;-89
2022/12/22 10:52:14;;;;;;;1.30;1.25;;;8.20;99.90;;;;;;4867932;29;20056;-89
2022/12/22 10:54:43;;;;;;;3.70;1.58;;;7.60;99.90;;;;;;4874035;29;20061;-89
2022/12/22 10:57:15;;;;;;;1.58;1.48;;;7.30;99.90;;;;;;4873222;29;20053;-90
2022/12/22 10:59:55;;;;;;;2.25;1.45;;;7.10;99.90;;;;;;4873720;29;20064;-90
2022/12/22 11:02:22;;;;;;;1.55;1.45;;;7.00;99.90;;;;;;4856811;29;20056;-89
2022/12/22 11:04:52;;;;;;;5.18;1.60;;;7.10;99.90;;;;;;4858348;29;20383;-89
2022/12/22 11:07:20;;;;;;;3.55;3.35;;;7.10;99.90;;;;;;4872903;29;20487;-89
2022/12/22 11:09:47;;;;;;;3.05;1.73;;;7.00;99.90;;;;;;4866073;29;20046;-90
2022/12/22 11:12:51;;;;;;;1.45;1.35;;;7.00;99.90;;;;;;4842495;29;20415;-89
2022/12/22 11:15:38;;;;;;;1.70;1.60;;;7.00;99.90;;;;;;4873342;29;20076;-90
2022/12/22 11:18:22;;;;;;;6.55;2.40;;;6.90;99.90;;;;;;4858028;29;20050;-88
2022/12/22 11:20:58;;;;;;;2.38;1.17;;;6.90;99.90;;;;;;4881820;29;20127;-90
2022/12/22 11:23:48;;;;;;;2.50;1.67;;;6.90;99.90;;;;;;4863575;29;20428;-89
2022/12/22 11:26:51;;;;;;;2.03;1.80;;;6.90;99.90;;;;;;4896090;29;20052;-90
2022/12/22 11:29:27;;;;;;;2.60;1.30;;;7.10;99.90;;;;;;4843879;29;20049;-90
2022/12/22 11:32:16;;;;;;;1.80;1.40;;;7.30;99.90;;;;;;4921173;29;20055;-90
2022/12/22 11:34:53;;;;;;;1.30;1.27;;;7.30;99.90;;;;;;4896822;29;20500;-89
2022/12/22 11:37:38;;;;;;;1.17;1.17;;;7.30;99.90;;;;;;4924816;29;20360;-91
2022/12/22 11:40:31;;;;;;;4.35;1.40;;;7.50;99.90;;;;;;4858694;29;20062;-91
2022/12/22 11:43:10;;;;;;;1.48;0.90;;;7.90;99.90;;;;;;4879854;29;20052;-89
2022/12/22 11:45:46;;;;;;;1.15;0.73;;;8.60;99.90;;;;;;4879132;29;20048;-87
2022/12/22 11:48:57;;;;;;;1.08;1.05;;;8.70;99.90;;;;;;4895128;29;20052;-88
2022/12/22 11:52:09;;;;;;;0.70;0.70;;;8.90;99.90;;;;;;4902865;29;20402;-86
2022/12/22 11:54:59;;;;;;;1.13;0.80;;;8.90;99.90;;;;;;4887082;29;20049;-86
2022/12/22 11:57:41;;;;;;;1.50;0.90;;;8.70;99.90;;;;;;4841561;29;20045;-88
2022/12/22 12:00:12;;;;;;;2.17;1.60;;;8.40;99.90;;;;;;4858081;29;20037;-88
2022/12/22 12:03:11;;;;;;;1.38;1.15;;;8.20;99.90;;;;;;4871471;29;20391;-87
2022/12/22 12:06:00;;;;;;;1.52;1.05;;;8.10;99.90;;;;;;4856658;29;20541;-83
2022/12/22 12:08:40;;;;;;;2.05;1.10;;;8.30;99.90;;;;;;4839651;29;20042;-83
2022/12/22 12:11:23;;;;;;;0.80;0.80;;;8.50;99.90;;;;;;4858296;29;20054;-85
2022/12/22 12:14:20;;;;;;;1.40;1.05;;;8.50;99.90;;;;;;4857581;29;20406;-87
2022/12/22 12:17:21;;;;;;;1.75;0.88;;;8.40;99.90;;;;;;4858091;29;20054;-88
2022/12/22 12:20:19;;;;;;;4.00;1.05;;;8.20;99.90;;;;;;4895555;29;20489;-86
2022/12/22 12:22:59;;;;;;;1.20;1.10;;;8.40;99.90;;;;;;4877497;29;20065;-87
2022/12/22 12:25:53;;;;;;;2.35;1.33;;;8.20;99.90;;;;;;4877623;29;20056;-90
2022/12/22 12:28:31;;;;;;;1.10;1.10;;;8.00;99.90;;;;;;4908422;29;20048;-85
2022/12/22 12:30:59;;;;;;;2.90;0.85;;;8.40;99.90;;;;;;4878560;29;20059;-87
2022/12/22 12:33:42;;;;;;;13.45;1.52;;;8.60;99.90;;;;;;4874015;29;20453;-90
2022/12/22 12:36:20;;;;;;;8.93;1.90;;;8.60;99.90;;;;;;4874954;29;20049;-86
2022/12/22 12:38:59;;;;;;;1.10;0.70;;;8.40;99.90;;;;;;4888532;29;20057;-87
2022/12/22 12:41:50;;;;;;;3.25;1.15;;;8.50;99.90;;;;;;4865962;29;20053;-86
2022/12/22 12:44:25;;;;;;;20.45;2.47;;;8.40;99.90;;;;;;4888747;29;20397;-85
2022/12/22 12:46:54;;;;;;;1.08;1.00;;;8.70;99.90;;;;;;4874806;29;20072;-84
2022/12/22 12:49:34;;;;;;;4.93;1.00;;;8.80;99.90;;;;;;4893425;29;20044;-84
2022/12/22 12:52:10;;;;;;;4.43;1.77;;;8.70;99.90;;;;;;4856135;29;20064;-87
2022/12/22 12:54:42;;;;;;;4.60;1.30;;;8.70;99.90;;;;;;4868228;29;20049;-87
2022/12/22 12:57:45;;;;;;;3.42;1.50;;;8.50;99.90;;;;;;4861814;29;20052;-88
2022/12/22 13:00:34;;;;;;;6.32;1.17;;;8.40;99.90;;;;;;4873835;29;20449;-88
2022/12/22 13:03:07;;;;;;;9.02;1.73;;;8.70;99.90;;;;;;4873599;29;20391;-88
2022/12/22 13:05:54;;;;;;;3.10;1.15;;;8.80;99.90;;;;;;4859648;29;20045;-90
2022/12/22 13:08:29;;;;;;;3.25;1.60;;;8.70;99.90;;;;;;4904211;29;20421;-89
2022/12/22 13:10:57;;;;;;;2.40;1.15;;;8.70;99.90;;;;;;4874223;29;20053;-86
2022/12/22 13:13:25;;;;;;;5.65;1.42;;;8.70;99.90;;;;;;4873671;29;20056;-86
2022/12/22 13:16:01;;;;;;;2.85;1.13;;;8.70;99.90;;;;;;4874149;29;20061;-88
2022/12/22 13:18:32;;;;;;;1.02;1.02;;;8.80;99.90;;;;;;4856914;29;20061;-87
2022/12/22 13:21:25;;;;;;;1.08;0.98;;;8.80;99.90;;;;;;4912174;28;20413;-91
2022/12/22 13:24:23;;;;;;;2.75;1.30;;;8.80;99.90;;;;;;4876058;29;20059;-89
2022/12/22 13:27:13;;;;;;;2.53;1.10;;;8.60;99.90;;;;;;4894446;29;20067;-89
2022/12/22 13:29:45;;;;;;;2.47;0.98;;;8.80;99.90;;;;;;4904350;29;20056;-90
2022/12/22 13:32:33;;;;;;;5.10;1.63;;;8.80;99.90;;;;;;4908031;29;20049;-90
2022/12/22 13:35:21;;;;;;;1.38;1.10;;;8.70;99.90;;;;;;4877200;29;20052;-88
2022/12/22 13:38:00;;;;;;;0.68;0.68;;;9.00;99.90;;;;;;4887482;29;20045;-89
2022/12/22 13:40:39;;;;;;;6.20;2.58;;;9.10;99.90;;;;;;4874501;29;20048;-89
2022/12/22 13:43:16;;;;;;;1.67;1.57;;;9.20;99.90;;;;;;4874177;29;20052;-89
2022/12/22 13:45:49;;;;;;;1.65;1.13;;;9.10;99.90;;;;;;4873702;29;20648;-89
2022/12/22 13:48:29;;;;;;;0.90;0.88;;;9.20;99.90;;;;;;4857861;29;20049;-89
2022/12/22 13:51:00;;;;;;;1.63;1.25;;;9.20;99.90;;;;;;4873613;29;20064;-86
2022/12/22 13:53:42;;;;;;;3.67;0.93;;;9.30;99.90;;;;;;4883787;29;20053;-89
2022/12/22 13:56:38;;;;;;;;;;;9.30;99.90;;;;;;4855407;29;20513;-88
2022/12/22 13:59:28;;;;;;;2.25;1.00;;;9.40;99.90;;;;;;4901717;29;19939;-85
2022/12/22 14:01:58;;;;;;;4.95;1.67;;;9.60;99.90;;;;;;4885809;29;20398;-88
2022/12/22 14:04:27;;;;;;;35.63;4.88;;;9.60;99.90;;;;;;4885384;29;20422;-86
2022/12/22 14:07:15;;;;;;;2.97;1.60;;;9.50;99.90;;;;;;4885596;29;20080;-86
2022/12/22 14:09:48;;;;;;;3.10;1.35;;;9.60;99.90;;;;;;4885599;29;20058;-90
2022/12/22 14:12:22;;;;;;;1.38;1.02;;;9.50;99.90;;;;;;4885950;29;20461;-86
2022/12/22 14:14:59;;;;;;;1.83;1.10;;;9.20;99.90;;;;;;4902356;29;20053;-86
2022/12/22 14:17:34;;;;;;;1.90;1.35;;;9.30;99.90;;;;;;4856101;29;20049;-88
2022/12/22 14:20:19;;;;;;;3.33;1.45;;;9.50;99.90;;;;;;4865933;29;20060;-90
2022/12/22 14:23:19;;;;;;;1.40;1.30;;;9.40;99.90;;;;;;4892037;29;20060;-92
2022/12/22 14:25:48;;;;;;;12.02;3.47;;;9.40;99.90;;;;;;4922814;29;20401;-91
2022/12/22 14:28:21;;;;;;;2.40;0.80;;;9.40;99.90;;;;;;4866105;29;20257;-89
2022/12/22 14:30:53;;;;;;;1.30;1.15;;;9.50;99.90;;;;;;4879370;29;20061;-89
2022/12/22 14:33:27;;;;;;;1.65;1.23;;;9.40;99.90;;;;;;4862159;29;20425;-92
2022/12/22 14:36:16;;;;;;;4.63;1.40;;;9.30;99.90;;;;;;4878583;29;20060;-89
2022/12/22 14:38:55;;;;;;;1.48;1.20;;;9.40;99.90;;;;;;4891771;29;20464;-88
2022/12/22 14:41:44;;;;;;;3.15;1.92;;;9.60;99.90;;;;;;4907792;29;20037;-88
2022/12/22 14:44:15;;;;;;;14.93;2.90;;;10.00;99.90;;;;;;4861515;29;20068;-86
2022/12/22 14:46:47;;;;;;;1.73;1.35;;;9.90;99.90;;;;;;4862192;29;20417;-88
2022/12/22 14:49:18;;;;;;;5.20;2.13;;;9.60;99.90;;;;;;4877101;29;20057;-92
2022/12/22 14:52:06;;;;;;;18.50;2.08;;;9.80;99.90;;;;;;4876338;29;20053;-90
2022/12/22 14:54:34;;;;;;;2.83;1.48;;;9.90;99.90;;;;;;4892864;29;20053;-87
2022/12/22 14:57:10;;;;;;;5.40;1.83;;;9.90;99.90;;;;;;4878363;29;20045;-91
2022/12/22 14:59:58;;;;;;;10.80;2.47;;;10.00;99.90;;;;;;4878068;29;20049;-86
2022/12/22 15:02:38;;;;;;;4.22;1.75;;;9.70;99.90;;;;;;4875186;29;20061;-88
2022/12/22 15:05:12;;;;;;;5.75;1.27;;;9.90;99.90;;;;;;4907638;29;20056;-87
2022/12/22 15:07:49;;;;;;;2.42;2.22;;;9.80;99.90;;;;;;4906313;29;20048;-85
2022/12/22 15:10:42;;;;;;;3.17;2.65;;;9.90;99.90;;;;;;4888604;29;20053;-92
2022/12/22 15:13:21;;;;;;;2.20;1.80;;;10.00;99.90;;;;;;4876333;29;20253;-88
2022/12/22 15:15:50;;;;;;;8.20;1.52;;;10.00;99.90;;;;;;4877455;29;20063;-89
2022/12/22 15:18:26;;;;;;;2.30;1.15;;;9.90;99.90;;;;;;4877049;29;20052;-86
2022/12/22 15:20:55;;;;;;;3.95;2.45;;;10.00;99.90;;;;;;4889265;29;20053;-87
2022/12/22 15:23:23;;;;;;;7.25;2.83;;;10.00;99.90;;;;;;4894230;29;20056;-90
2022/12/22 15:25:50;;;;;;;3.05;1.42;;;9.90;99.90;;;;;;4879585;29;20055;-87
2022/12/22 15:28:18;;;;;;;4.70;2.88;;;9.70;99.90;;;;;;4893958;29;20791;-86
2022/12/22 15:30:46;;;;;;;3.45;1.20;;;9.80;99.90;;;;;;4895800;29;20491;-85
2022/12/22 15:33:16;;;;;;;10.68;2.20;;;9.80;99.90;;;;;;4885369;29;20041;-88
2022/12/22 15:35:45;;;;;;;15.90;3.47;;;9.90;99.90;;;;;;4880558;29;20061;-86
2022/12/22 15:38:18;;;;;;;8.05;3.38;;;9.70;99.90;;;;;;4861692;29;20301;-87
2022/12/22 15:40:47;;;;;;;10.82;2.03;;;9.50;99.90;;;;;;4876252;29;20053;-88
2022/12/22 15:43:15;;;;;;;2.85;2.30;;;9.50;99.90;;;;;;4891536;29;20045;-87
2022/12/22 15:46:04;;;;;;;11.02;1.60;;;9.40;99.90;;;;;;4874919;29;20049;-84
2022/12/22 15:48:35;;;;;;;3.40;3.10;;;9.50;99.90;;;;;;4875303;29;20053;-87
2022/12/22 15:51:06;;;;;;;6.50;1.40;;;9.70;99.90;;;;;;4858974;29;20065;-88
2022/12/22 15:53:35;;;;;;;2.95;1.67;;;9.50;99.90;;;;;;4873430;29;20293;-87
2022/12/22 15:56:03;;;;;;;6.13;2.15;;;9.50;99.90;;;;;;4876878;29;20057;-88
2022/12/22 15:58:34;;;;;;;3.00;0.90;;;9.60;99.90;;;;;;4874677;29;20413;-88
2022/12/22 16:01:02;;;;;;;3.75;1.65;;;9.60;99.90;;;;;;4859548;29;20502;-87
2022/12/22 16:03:30;;;;;;;6.70;3.40;;;9.40;99.90;;;;;;4906919;29;20068;-87
2022/12/22 16:05:59;;;;;;;4.65;2.33;;;9.60;99.90;;;;;;4891396;29;20541;-85
2022/12/22 16:08:35;;;;;;;6.68;1.55;;;9.60;99.90;;;;;;4875445;29;20454;-84
2022/12/22 16:11:05;;;;;;;20.00;4.55;;;9.70;99.90;;;;;;4875611;29;20056;-88
2022/12/22 16:13:41;;;;;;;4.15;1.63;;;9.50;99.90;;;;;;4876546;29;20051;-84
2022/12/22 16:16:10;;;;;;;4.78;2.03;;;9.80;99.90;;;;;;4906191;29;20044;-86
2022/12/22 16:18:38;;;;;;;4.63;1.92;;;9.70;99.90;;;;;;4905888;29;20429;-85
2022/12/22 16:21:15;;;;;;;3.00;1.83;;;9.50;99.90;;;;;;4935681;28;20053;-86
2022/12/22 16:23:45;;;;;;;5.65;1.50;;;9.60;99.90;;;;;;4850022;29;20044;-87
2022/12/22 16:26:19;;;;;;;2.65;1.60;;;9.80;99.90;;;;;;4859313;29;20064;-86
2022/12/22 16:28:47;;;;;;;4.03;1.45;;;9.60;99.90;;;;;;4873074;29;20057;-86
2022/12/22 16:31:20;;;;;;;6.47;1.80;;;9.80;99.90;;;;;;4909877;29;20060;-88
2022/12/22 16:33:51;;;;;;;1.80;1.70;;;9.70;99.90;;;;;;4888930;29;20692;-90
2022/12/22 16:36:19;;;;;;;2.45;1.50;;;9.70;99.90;;;;;;4856550;29;20055;-88
2022/12/22 16:38:46;;;;;;;1.70;1.58;;;9.70;99.90;;;;;;4855872;29;20472;-88
2022/12/22 16:41:20;;;;;;;1.73;1.63;;;9.60;99.90;;;;;;4872839;29;20421;-87
2022/12/22 16:43:48;;;;;;;6.70;1.55;;;9.50;99.90;;;;;;4870336;29;20057;-86
2022/12/22 16:46:20;;;;;;;12.55;2.60;;;9.70;99.90;;;;;;4870966;29;20402;-84
2022/12/22 16:48:54;;;;;;;3.67;1.80;;;9.60;99.90;;;;;;4897246;29;20049;-86
2022/12/22 16:51:32;;;;;;;6.50;2.53;;;9.60;99.90;;;;;;4902638;29;20275;-89
2022/12/22 16:54:00;;;;;;;9.43;2.40;;;9.60;99.90;;;;;;4884312;29;20069;-88
2022/12/22 16:56:29;;;;;;;1.30;1.20;;;9.70;99.90;;;;;;4855507;29;20776;-86
2022/12/22 16:58:59;;;;;;;1.85;1.08;;;9.60;99.90;;;;;;4872907;29;20048;-91
2022/12/22 17:01:40;;;;;;;1.60;1.50;;;9.60;99.90;;;;;;4871389;29;20060;-91
2022/12/22 17:04:28;;;;;;;4.13;1.17;;;9.40;99.90;;;;;;4874685;29;20057;-86
2022/12/22 17:06:58;;;;;;;6.28;1.85;;;9.60;99.90;;;;;;4902060;29;20549;-87
2022/12/22 17:09:41;;;;;;;4.22;1.30;;;9.50;99.90;;;;;;4859481;29;20049;-91
2022/12/22 17:12:33;;;;;;;2.25;1.45;;;9.50;99.90;;;;;;4871797;29;20052;-89
2022/12/22 17:15:01;;;;;;;1.58;1.48;;;9.60;99.90;;;;;;4842898;29;20071;-91
2022/12/22 17:17:30;;;;;;;1.58;0.60;;;9.80;99.90;;;;;;4856628;29;20061;-92
2022/12/22 17:20:08;;;;;;;12.90;2.20;;;9.80;99.90;;;;;;4899037;29;20556;-89
2022/12/22 17:22:39;;;;;;;5.80;2.50;;;9.70;99.90;;;;;;4874806;29;20064;-89
2022/12/22 17:25:13;;;;;;;6.78;1.10;;;9.60;99.90;;;;;;4875650;29;20052;-86
2022/12/22 17:27:41;;;;;;;3.80;2.85;;;9.70;99.90;;;;;;4890391;29;20706;-86